Time;durP1;ratioP1;P1;durP2;ratioP2;P2;SDS_P1;SDS_P2;PMS_P1;PMS_P2;Temp;Humidity;BMP_temperature;BMP_pressure;BME280_temperature;BME280_humidity;BME280_pressure;Samples;Min_cycle;Max_cycle;Signal;HPM_P1;HPM_P2
2024/03/26 00:02:22;;;;;;;10.13;2.53;;;11.10;93.60;;;;;;5059375;28;20107;-74
2024/03/26 00:04:48;;;;;;;9.52;2.28;;;11.00;93.60;;;;;;5056317;28;20076;-74
2024/03/26 00:07:13;;;;;;;5.22;2.40;;;11.00;93.60;;;;;;5063000;28;20033;-74
2024/03/26 00:09:39;;;;;;;4.35;2.10;;;11.10;93.70;;;;;;5050102;28;20047;-75
2024/03/26 00:12:05;;;;;;;8.32;2.78;;;11.00;93.80;;;;;;5053115;28;20060;-75
2024/03/26 00:14:31;;;;;;;9.48;2.53;;;10.90;93.70;;;;;;5056423;28;20115;-74
2024/03/26 00:16:56;;;;;;;8.07;2.75;;;10.90;93.70;;;;;;5047941;28;20032;-74
2024/03/26 00:19:22;;;;;;;13.55;3.15;;;10.90;93.80;;;;;;5060171;28;20033;-74
2024/03/26 00:21:47;;;;;;;6.80;2.65;;;10.90;93.90;;;;;;5052073;28;20376;-74
2024/03/26 00:24:13;;;;;;;9.70;2.60;;;10.90;93.90;;;;;;5064266;28;20438;-75
2024/03/26 00:26:39;;;;;;;12.25;2.97;;;10.80;94.00;;;;;;5058084;28;20029;-75
2024/03/26 00:29:04;;;;;;;11.70;2.70;;;10.80;94.10;;;;;;5056874;28;20029;-75
2024/03/26 00:31:34;;;;;;;16.20;3.17;;;10.70;94.20;;;;;;5057503;28;20040;-75
2024/03/26 00:34:03;;;;;;;12.10;3.17;;;10.70;94.20;;;;;;5051592;28;20118;-74
2024/03/26 00:36:32;;;;;;;8.13;2.50;;;10.70;94.20;;;;;;5058372;28;20383;-75
2024/03/26 00:38:58;;;;;;;9.20;3.17;;;10.60;94.20;;;;;;5068200;28;20048;-75
2024/03/26 00:41:24;;;;;;;12.50;2.85;;;10.70;94.20;;;;;;5066487;28;20064;-75
2024/03/26 00:43:49;;;;;;;9.90;3.00;;;10.60;94.20;;;;;;5059731;28;20024;-75
2024/03/26 00:46:15;;;;;;;10.10;2.75;;;10.60;94.20;;;;;;5055057;28;20391;-74
2024/03/26 00:48:41;;;;;;;12.60;2.90;;;10.60;94.20;;;;;;5071254;28;20028;-74
2024/03/26 00:51:06;;;;;;;9.05;2.80;;;10.60;94.30;;;;;;5063560;28;20468;-74
2024/03/26 00:53:32;;;;;;;11.98;2.75;;;10.50;94.30;;;;;;5064424;28;20021;-75
2024/03/26 00:55:58;;;;;;;7.03;2.55;;;10.50;94.30;;;;;;5063249;28;20398;-74
2024/03/26 00:58:24;;;;;;;8.32;2.45;;;10.50;94.40;;;;;;5052887;28;20393;-75
2024/03/26 01:00:49;;;;;;;7.07;2.58;;;10.50;94.40;;;;;;5057946;28;20057;-75
2024/03/26 01:03:15;;;;;;;9.88;3.03;;;10.40;94.40;;;;;;5056785;28;20037;-75
2024/03/26 01:05:51;;;;;;;10.98;3.50;;;10.50;94.40;;;;;;5054928;28;20025;-74
2024/03/26 01:08:16;;;;;;;7.63;3.05;;;10.40;94.30;;;;;;5068194;28;20067;-75
2024/03/26 01:10:42;;;;;;;11.60;2.95;;;10.40;94.40;;;;;;5065258;28;20064;-75
2024/03/26 01:13:08;;;;;;;11.57;3.08;;;10.40;94.40;;;;;;5054090;28;20021;-74
2024/03/26 01:15:34;;;;;;;5.35;2.63;;;10.40;94.50;;;;;;5053724;28;20040;-75
2024/03/26 01:17:59;;;;;;;8.73;2.80;;;10.40;94.60;;;;;;5054134;28;20633;-74
2024/03/26 01:20:25;;;;;;;12.45;2.95;;;10.40;94.20;;;;;;5051608;28;20109;-74
2024/03/26 01:22:51;;;;;;;7.05;2.80;;;10.40;94.20;;;;;;5049892;28;20498;-75
2024/03/26 01:25:16;;;;;;;10.85;2.92;;;10.50;94.10;;;;;;5054599;28;20408;-75
2024/03/26 01:27:42;;;;;;;6.85;2.72;;;10.40;94.10;;;;;;5060334;28;20040;-74
2024/03/26 01:30:08;;;;;;;9.05;3.30;;;10.40;94.20;;;;;;5051299;28;20079;-75
2024/03/26 01:32:34;;;;;;;13.55;3.40;;;10.40;94.20;;;;;;5049970;28;20029;-75
2024/03/26 01:34:59;;;;;;;7.15;3.05;;;10.40;94.20;;;;;;5051349;28;20032;-74
2024/03/26 01:37:25;;;;;;;9.20;3.20;;;10.40;94.10;;;;;;5061657;28;20487;-74
2024/03/26 01:39:50;;;;;;;6.43;2.63;;;10.40;94.00;;;;;;5060189;28;20036;-75
2024/03/26 01:42:16;;;;;;;10.60;3.20;;;10.40;93.90;;;;;;5063743;28;20031;-74
2024/03/26 01:44:41;;;;;;;8.73;2.60;;;10.40;93.90;;;;;;5051678;28;20079;-74
2024/03/26 01:47:07;;;;;;;5.85;3.00;;;10.40;93.80;;;;;;5056407;28;20038;-75
2024/03/26 01:49:35;;;;;;;7.57;3.50;;;10.40;93.70;;;;;;5069412;28;20040;-74
2024/03/26 01:52:01;;;;;;;6.05;2.63;;;10.40;93.90;;;;;;5061920;28;20063;-74
2024/03/26 01:54:27;;;;;;;7.07;2.75;;;10.40;93.80;;;;;;5063753;28;20047;-74
2024/03/26 01:56:55;;;;;;;9.18;3.22;;;10.40;93.80;;;;;;5061714;28;20037;-74
2024/03/26 01:59:23;;;;;;;7.15;2.90;;;10.40;93.80;;;;;;5051576;28;20059;-74
2024/03/26 02:01:49;;;;;;;11.35;3.25;;;10.40;93.80;;;;;;5062648;28;20036;-74
2024/03/26 02:04:15;;;;;;;8.18;2.42;;;10.30;93.80;;;;;;5067231;28;20037;-74
2024/03/26 02:06:40;;;;;;;9.77;2.97;;;10.30;94.00;;;;;;5070112;28;20035;-75
2024/03/26 02:09:06;;;;;;;12.07;2.80;;;10.30;93.90;;;;;;5053331;28;20036;-74
2024/03/26 02:11:32;;;;;;;5.97;2.22;;;10.30;93.90;;;;;;5051139;28;20048;-74
2024/03/26 02:13:57;;;;;;;9.60;3.05;;;10.30;94.00;;;;;;5061749;28;20058;-74
2024/03/26 02:16:23;;;;;;;8.40;3.08;;;10.20;94.00;;;;;;5059955;28;20029;-74
2024/03/26 02:18:49;;;;;;;7.85;2.88;;;10.20;94.10;;;;;;5049627;28;20016;-74
2024/03/26 02:21:14;;;;;;;6.30;2.80;;;10.20;94.00;;;;;;5052339;28;20032;-74
2024/03/26 02:23:40;;;;;;;12.45;3.42;;;10.20;93.90;;;;;;5054896;28;20104;-74
2024/03/26 02:26:05;;;;;;;10.25;3.10;;;10.20;93.90;;;;;;5051023;28;20051;-74
2024/03/26 02:28:31;;;;;;;16.02;3.58;;;10.20;94.00;;;;;;5053197;28;20036;-75
2024/03/26 02:30:57;;;;;;;13.15;3.25;;;10.20;94.00;;;;;;5057466;28;20076;-74
2024/03/26 02:33:22;;;;;;;12.00;2.70;;;10.10;94.00;;;;;;5063612;28;20028;-75
2024/03/26 02:35:48;;;;;;;8.48;3.45;;;10.20;93.90;;;;;;5066734;28;20399;-74
2024/03/26 02:38:13;;;;;;;6.07;2.70;;;10.10;94.00;;;;;;5051729;28;20159;-74
2024/03/26 02:40:39;;;;;;;6.93;2.70;;;10.00;94.10;;;;;;5050740;28;20468;-75
2024/03/26 02:43:05;;;;;;;6.28;2.80;;;10.00;94.20;;;;;;5063652;28;20025;-74
2024/03/26 02:45:31;;;;;;;9.57;3.40;;;10.00;94.20;;;;;;5068344;28;20105;-74
2024/03/26 02:47:57;;;;;;;15.35;3.53;;;10.00;94.20;;;;;;5061487;28;20033;-74
2024/03/26 02:50:22;;;;;;;9.50;3.55;;;9.90;94.10;;;;;;5049802;28;20186;-74
2024/03/26 02:52:48;;;;;;;13.48;3.88;;;9.90;94.30;;;;;;5053808;28;20029;-74
2024/03/26 02:55:13;;;;;;;7.35;2.45;;;9.90;94.30;;;;;;5066516;28;20431;-75
2024/03/26 02:57:39;;;;;;;7.70;2.65;;;9.90;94.30;;;;;;5049852;28;20434;-74
2024/03/26 03:00:06;;;;;;;7.07;2.65;;;9.90;94.30;;;;;;5064732;28;20033;-74
2024/03/26 03:02:34;;;;;;;6.68;2.90;;;9.80;94.30;;;;;;5058222;28;20041;-75
2024/03/26 03:05:00;;;;;;;8.88;3.22;;;9.80;94.20;;;;;;5056901;28;20029;-75
2024/03/26 03:07:25;;;;;;;8.00;3.13;;;9.80;94.30;;;;;;5056803;28;20475;-74
2024/03/26 03:09:51;;;;;;;16.13;3.05;;;9.90;94.30;;;;;;5056073;28;20046;-75
2024/03/26 03:12:17;;;;;;;8.50;3.28;;;9.80;94.30;;;;;;5047720;28;20036;-74
2024/03/26 03:14:42;;;;;;;7.65;3.15;;;9.80;94.30;;;;;;5048549;28;20036;-74
2024/03/26 03:17:08;;;;;;;6.40;3.08;;;9.70;94.10;;;;;;5048434;28;20873;-75
2024/03/26 03:19:33;;;;;;;8.98;3.60;;;9.80;94.30;;;;;;5047850;28;20032;-74
2024/03/26 03:21:59;;;;;;;10.73;3.15;;;9.80;94.10;;;;;;5055128;28;20077;-75
2024/03/26 03:24:25;;;;;;;9.45;3.28;;;9.70;94.10;;;;;;5065718;28;20063;-74
2024/03/26 03:26:50;;;;;;;8.55;2.65;;;9.70;94.10;;;;;;5067835;28;20055;-74
2024/03/26 03:29:16;;;;;;;8.57;3.10;;;9.70;94.10;;;;;;5058736;28;20040;-74
2024/03/26 03:31:42;;;;;;;7.07;3.13;;;9.70;94.20;;;;;;5053727;28;20106;-74
2024/03/26 03:34:08;;;;;;;8.15;2.97;;;9.60;94.30;;;;;;5049390;28;20033;-74
2024/03/26 03:36:34;;;;;;;10.93;3.55;;;9.60;94.20;;;;;;5056441;28;20040;-74
2024/03/26 03:38:59;;;;;;;8.90;2.85;;;9.60;94.20;;;;;;5060991;28;20033;-74
2024/03/26 03:41:25;;;;;;;8.18;2.85;;;9.60;94.20;;;;;;5048575;28;20029;-74
2024/03/26 03:43:51;;;;;;;10.48;2.53;;;9.60;94.20;;;;;;5054699;28;20442;-75
2024/03/26 03:46:16;;;;;;;8.40;2.95;;;9.50;94.20;;;;;;5050864;28;20033;-75
2024/03/26 03:48:42;;;;;;;9.32;3.30;;;9.50;94.30;;;;;;5063201;28;20029;-74
2024/03/26 03:51:07;;;;;;;11.68;3.10;;;9.50;94.20;;;;;;5059019;28;20067;-74
2024/03/26 03:53:33;;;;;;;6.43;2.90;;;9.40;94.20;;;;;;5052383;28;20033;-75
2024/03/26 03:55:59;;;;;;;7.03;3.08;;;9.50;94.40;;;;;;5060573;28;20033;-74
2024/03/26 03:58:24;;;;;;;7.30;3.25;;;9.40;94.30;;;;;;5067486;28;20571;-75
2024/03/26 04:00:50;;;;;;;5.82;2.83;;;9.40;94.30;;;;;;5056734;28;20029;-74
2024/03/26 04:03:16;;;;;;;5.72;2.63;;;9.40;94.30;;;;;;5058067;28;20036;-75
2024/03/26 04:05:41;;;;;;;8.43;2.83;;;9.30;94.20;;;;;;5059414;28;20068;-74
2024/03/26 04:08:09;;;;;;;8.82;3.40;;;9.30;94.20;;;;;;5047062;28;20399;-75
2024/03/26 04:10:46;;;;;;;6.00;2.67;;;9.30;94.30;;;;;;5060657;28;20059;-74
2024/03/26 04:13:12;;;;;;;8.18;2.65;;;9.30;94.20;;;;;;5053581;28;20049;-75
2024/03/26 04:15:41;;;;;;;6.82;2.47;;;9.30;94.30;;;;;;5053471;28;20365;-74
2024/03/26 04:18:07;;;;;;;15.23;2.72;;;9.30;94.30;;;;;;5062578;28;20028;-74
2024/03/26 04:20:33;;;;;;;9.65;2.88;;;9.30;94.30;;;;;;5054443;28;20120;-74
2024/03/26 04:22:59;;;;;;;4.55;1.85;;;9.30;94.20;;;;;;5054193;28;20131;-74
2024/03/26 04:25:25;;;;;;;5.60;2.58;;;9.30;94.20;;;;;;5052798;28;20037;-75
2024/03/26 04:27:50;;;;;;;2.80;1.38;;;9.20;94.20;;;;;;5052504;28;20527;-74
2024/03/26 04:30:17;;;;;;;7.40;2.60;;;9.20;94.20;;;;;;5055257;28;20506;-74
2024/03/26 04:32:42;;;;;;;11.32;2.65;;;9.20;94.30;;;;;;5053978;28;20436;-75
2024/03/26 04:35:09;;;;;;;8.13;2.92;;;9.20;94.20;;;;;;5056900;28;20040;-74
2024/03/26 04:37:35;;;;;;;7.25;2.97;;;9.20;94.30;;;;;;5049265;28;20036;-74
2024/03/26 04:40:01;;;;;;;11.95;3.97;;;9.20;94.20;;;;;;5063663;28;20033;-74
2024/03/26 04:42:28;;;;;;;8.88;3.00;;;9.20;94.30;;;;;;5064906;28;20032;-74
2024/03/26 04:44:54;;;;;;;7.50;2.38;;;9.20;94.20;;;;;;5047896;28;20402;-74
2024/03/26 04:47:19;;;;;;;9.52;3.05;;;9.20;94.20;;;;;;5057706;28;20037;-74
2024/03/26 04:49:45;;;;;;;9.35;3.00;;;9.20;94.10;;;;;;5057194;28;20149;-74
2024/03/26 04:52:11;;;;;;;5.85;2.15;;;9.20;94.10;;;;;;5060761;28;20036;-74
2024/03/26 04:54:36;;;;;;;11.98;3.75;;;9.20;94.20;;;;;;5053867;28;20037;-74
2024/03/26 04:57:02;;;;;;;8.65;2.40;;;9.20;94.20;;;;;;5064590;28;20033;-74
2024/03/26 04:59:27;;;;;;;5.97;2.70;;;9.20;94.20;;;;;;5054649;28;20491;-74
2024/03/26 05:01:53;;;;;;;6.97;2.78;;;9.20;94.20;;;;;;5050816;28;20484;-74
2024/03/26 05:04:19;;;;;;;6.65;3.10;;;9.10;94.10;;;;;;5057444;28;20036;-74
2024/03/26 05:06:44;;;;;;;8.90;2.83;;;9.10;94.20;;;;;;5058940;28;20120;-74
2024/03/26 05:09:10;;;;;;;7.25;2.30;;;9.10;94.20;;;;;;5055933;28;20035;-75
2024/03/26 05:11:36;;;;;;;9.20;2.78;;;9.10;94.10;;;;;;5056549;28;20048;-74
2024/03/26 05:14:02;;;;;;;9.82;2.30;;;9.10;94.20;;;;;;5056465;28;20408;-74
2024/03/26 05:16:29;;;;;;;5.22;2.20;;;9.10;94.00;;;;;;5064067;28;20040;-74
2024/03/26 05:18:55;;;;;;;9.23;2.75;;;9.10;94.20;;;;;;5054770;28;20048;-74
2024/03/26 05:21:20;;;;;;;6.65;2.97;;;9.10;94.20;;;;;;5052153;28;20472;-74
2024/03/26 05:23:46;;;;;;;8.13;3.08;;;9.10;94.20;;;;;;5054114;28;20689;-74
2024/03/26 05:26:12;;;;;;;8.80;3.20;;;9.10;94.20;;;;;;5063189;28;20455;-74
2024/03/26 05:28:37;;;;;;;8.63;3.25;;;9.20;94.20;;;;;;5054033;28;20387;-74
2024/03/26 05:31:19;;;;;;;9.73;2.28;;;9.20;94.10;;;;;;5065284;28;20036;-74
2024/03/26 05:33:48;;;;;;;5.97;2.75;;;9.10;94.00;;;;;;5054887;28;20130;-74
2024/03/26 05:36:15;;;;;;;8.98;3.53;;;9.20;94.00;;;;;;5058825;28;20029;-74
2024/03/26 05:38:41;;;;;;;8.50;2.92;;;9.20;94.00;;;;;;5049851;28;20128;-74
2024/03/26 05:41:07;;;;;;;11.25;3.20;;;9.20;93.90;;;;;;5062569;28;20756;-74
2024/03/26 05:43:33;;;;;;;9.02;3.10;;;9.20;94.00;;;;;;5054229;28;20029;-75
2024/03/26 05:45:59;;;;;;;7.95;2.80;;;9.20;93.90;;;;;;5049260;28;20108;-74
2024/03/26 05:48:25;;;;;;;8.50;2.08;;;9.20;93.90;;;;;;5069811;28;20092;-75
2024/03/26 05:50:52;;;;;;;7.97;2.65;;;9.20;93.90;;;;;;5053916;28;20040;-75
2024/03/26 05:53:21;;;;;;;11.57;3.15;;;9.20;94.00;;;;;;5059882;28;20361;-74
2024/03/26 05:55:46;;;;;;;7.70;2.33;;;9.10;94.00;;;;;;5063593;28;20399;-74
2024/03/26 05:58:13;;;;;;;21.17;2.80;;;9.10;94.00;;;;;;5061848;28;20048;-75
2024/03/26 06:00:38;;;;;;;5.88;2.80;;;9.10;94.00;;;;;;5063476;28;20040;-75
2024/03/26 06:03:04;;;;;;;7.13;2.63;;;9.00;94.00;;;;;;5060026;28;20033;-75
2024/03/26 06:05:30;;;;;;;7.75;3.00;;;9.10;94.10;;;;;;5058037;28;20033;-75
2024/03/26 06:07:56;;;;;;;5.97;2.30;;;9.10;94.00;;;;;;5060973;28;20035;-75
2024/03/26 06:10:22;;;;;;;4.68;2.55;;;9.00;94.00;;;;;;5065610;28;20045;-75
2024/03/26 06:12:48;;;;;;;13.93;2.83;;;9.00;94.10;;;;;;5054059;28;20108;-75
2024/03/26 06:15:14;;;;;;;8.52;2.60;;;9.00;94.10;;;;;;5052863;28;20029;-75
2024/03/26 06:17:39;;;;;;;8.60;2.60;;;9.00;94.00;;;;;;5052288;28;20028;-75
2024/03/26 06:20:07;;;;;;;7.45;2.58;;;9.00;94.00;;;;;;5049585;28;20028;-76
2024/03/26 06:22:33;;;;;;;4.95;2.50;;;9.00;94.10;;;;;;5054027;28;20123;-75
2024/03/26 06:24:59;;;;;;;7.90;2.60;;;9.00;94.10;;;;;;5055513;28;20111;-75
2024/03/26 06:27:26;;;;;;;9.02;2.80;;;9.00;94.10;;;;;;5059976;28;20036;-75
2024/03/26 06:29:52;;;;;;;6.72;2.92;;;9.00;94.10;;;;;;5052880;28;20044;-75
2024/03/26 06:32:18;;;;;;;4.68;1.98;;;9.00;94.10;;;;;;5052375;28;20499;-75
2024/03/26 06:34:44;;;;;;;4.82;2.33;;;9.00;94.10;;;;;;5060004;28;20051;-75
2024/03/26 06:37:09;;;;;;;3.95;2.50;;;9.00;94.10;;;;;;5064250;28;20024;-76
2024/03/26 06:39:35;;;;;;;11.18;2.88;;;9.00;94.10;;;;;;5064797;28;20020;-74
2024/03/26 06:42:01;;;;;;;9.90;2.92;;;9.00;94.10;;;;;;5049324;28;20033;-74
2024/03/26 06:44:26;;;;;;;6.43;2.30;;;9.00;94.20;;;;;;5061898;28;20037;-73
2024/03/26 06:46:54;;;;;;;3.38;1.92;;;9.00;94.10;;;;;;5066559;28;20040;-75
2024/03/26 06:49:20;;;;;;;4.75;2.17;;;8.90;94.30;;;;;;5051376;28;20490;-76
2024/03/26 06:51:46;;;;;;;5.53;2.22;;;8.90;94.40;;;;;;5066193;28;20041;-75
2024/03/26 06:54:12;;;;;;;5.45;1.92;;;8.90;94.30;;;;;;5054524;28;20082;-76
2024/03/26 06:56:37;;;;;;;5.35;3.40;;;8.90;94.30;;;;;;5064072;28;20601;-76
2024/03/26 06:59:03;;;;;;;4.25;1.95;;;8.90;94.50;;;;;;5047038;28;20049;-75
2024/03/26 07:01:28;;;;;;;5.85;2.95;;;9.00;94.70;;;;;;5050408;28;20106;-75
2024/03/26 07:03:54;;;;;;;2.10;1.88;;;9.00;94.70;;;;;;5059323;28;20406;-75
2024/03/26 07:06:20;;;;;;;9.82;1.65;;;9.10;94.50;;;;;;5049089;28;20028;-75
2024/03/26 07:08:46;;;;;;;4.72;2.03;;;9.00;94.50;;;;;;5063660;28;20564;-75
2024/03/26 07:11:11;;;;;;;6.13;1.25;;;9.10;94.50;;;;;;5054857;28;20033;-76
2024/03/26 07:13:37;;;;;;;7.82;4.07;;;9.00;94.30;;;;;;5048694;28;20028;-76
2024/03/26 07:16:04;;;;;;;3.10;1.17;;;9.10;94.40;;;;;;5055221;28;20473;-76
2024/03/26 07:18:30;;;;;;;10.55;2.83;;;9.10;94.60;;;;;;5067456;28;20037;-76
2024/03/26 07:20:58;;;;;;;8.35;2.40;;;9.10;94.50;;;;;;5061527;28;20025;-76
2024/03/26 07:23:26;;;;;;;5.00;2.67;;;9.10;94.50;;;;;;5051937;28;20033;-78
2024/03/26 07:25:52;;;;;;;9.75;3.28;;;9.10;94.50;;;;;;5065294;28;20111;-77
2024/03/26 07:28:18;;;;;;;6.63;3.33;;;9.10;94.50;;;;;;5061991;28;20159;-77
2024/03/26 07:30:44;;;;;;;9.13;2.90;;;9.00;94.60;;;;;;5048224;28;20106;-75
2024/03/26 07:33:10;;;;;;;9.10;3.67;;;9.10;94.50;;;;;;5059334;28;20484;-75
2024/03/26 07:35:35;;;;;;;10.95;3.10;;;9.10;94.50;;;;;;5057283;28;20036;-75
2024/03/26 07:38:02;;;;;;;8.60;3.63;;;9.20;94.50;;;;;;5065073;28;20107;-74
2024/03/26 07:40:28;;;;;;;3.08;1.88;;;9.20;94.60;;;;;;5052397;28;20552;-75
2024/03/26 07:42:54;;;;;;;4.95;2.45;;;9.10;94.60;;;;;;5053754;28;20091;-76
2024/03/26 07:45:20;;;;;;;9.60;3.40;;;9.10;94.70;;;;;;5063872;28;20123;-76
2024/03/26 07:47:46;;;;;;;3.58;1.77;;;9.10;94.60;;;;;;5054598;28;20104;-76
2024/03/26 07:50:11;;;;;;;4.90;2.50;;;9.10;94.70;;;;;;5059573;28;20409;-76
2024/03/26 07:52:37;;;;;;;4.95;2.63;;;9.10;94.80;;;;;;5058365;28;20025;-76
2024/03/26 07:55:03;;;;;;;4.40;2.33;;;9.10;94.80;;;;;;5050134;28;20130;-76
2024/03/26 07:57:28;;;;;;;7.82;3.05;;;9.20;94.80;;;;;;5054693;28;20037;-75
2024/03/26 07:59:54;;;;;;;10.38;2.65;;;9.20;94.80;;;;;;5050183;28;20036;-76
2024/03/26 08:02:20;;;;;;;5.80;2.72;;;9.20;94.80;;;;;;5049005;28;20024;-76
2024/03/26 08:04:46;;;;;;;10.05;2.78;;;9.20;94.80;;;;;;5059273;28;20032;-76
2024/03/26 08:07:11;;;;;;;3.88;2.15;;;9.30;94.80;;;;;;5051182;28;20025;-76
2024/03/26 08:09:38;;;;;;;7.53;3.05;;;9.20;94.80;;;;;;5061232;28;20435;-75
2024/03/26 08:12:04;;;;;;;2.70;1.92;;;9.30;94.90;;;;;;5049220;28;20393;-76
2024/03/26 08:14:29;;;;;;;7.65;2.63;;;9.30;94.90;;;;;;5059707;28;20486;-77
2024/03/26 08:16:55;;;;;;;6.15;2.63;;;9.40;94.90;;;;;;5046015;28;20037;-75
2024/03/26 08:19:21;;;;;;;7.45;3.00;;;9.40;94.90;;;;;;5057380;28;20025;-75
2024/03/26 08:21:46;;;;;;;4.35;2.30;;;9.40;95.00;;;;;;5049345;28;20500;-75
2024/03/26 08:24:12;;;;;;;8.38;2.58;;;9.40;95.00;;;;;;5047971;28;20209;-75
2024/03/26 08:26:38;;;;;;;5.32;2.65;;;9.40;95.00;;;;;;5059878;28;20110;-75
2024/03/26 08:29:03;;;;;;;6.45;2.88;;;9.40;95.10;;;;;;5049235;28;20018;-74
2024/03/26 08:31:29;;;;;;;6.65;2.63;;;9.50;95.10;;;;;;5051033;28;20412;-74
2024/03/26 08:33:55;;;;;;;13.73;3.53;;;9.50;95.00;;;;;;5049072;28;20082;-74
2024/03/26 08:36:22;;;;;;;7.65;2.47;;;9.60;95.10;;;;;;5050215;28;20082;-75
2024/03/26 08:38:48;;;;;;;2.72;1.63;;;9.60;95.00;;;;;;5064303;28;20037;-75
2024/03/26 08:41:14;;;;;;;6.88;3.15;;;9.60;95.00;;;;;;5061601;28;20063;-75
2024/03/26 08:43:40;;;;;;;6.13;2.80;;;9.70;95.10;;;;;;5055887;28;20045;-75
2024/03/26 08:46:06;;;;;;;9.57;2.90;;;9.70;95.10;;;;;;5062885;28;20029;-75
2024/03/26 08:48:31;;;;;;;6.78;3.15;;;9.80;95.10;;;;;;5051729;28;20083;-75
2024/03/26 08:50:57;;;;;;;10.55;3.47;;;9.90;95.00;;;;;;5054139;28;20040;-75
2024/03/26 08:53:24;;;;;;;6.45;3.25;;;9.90;95.10;;;;;;5063595;28;20411;-75
2024/03/26 08:55:50;;;;;;;7.18;2.72;;;9.90;95.10;;;;;;5062837;28;20043;-75
2024/03/26 08:58:15;;;;;;;7.78;2.90;;;9.80;95.10;;;;;;5052436;28;20045;-75
2024/03/26 09:00:41;;;;;;;11.07;2.80;;;9.90;95.00;;;;;;5054129;28;20653;-75
2024/03/26 09:03:07;;;;;;;4.85;2.88;;;10.00;95.10;;;;;;5064004;28;20086;-75
2024/03/26 09:05:33;;;;;;;8.60;3.05;;;10.00;95.10;;;;;;5064115;28;20105;-75
2024/03/26 09:07:59;;;;;;;7.50;3.10;;;10.10;95.10;;;;;;5051484;28;20025;-75
2024/03/26 09:10:25;;;;;;;15.85;3.60;;;10.10;95.20;;;;;;5063839;28;20049;-75
2024/03/26 09:12:51;;;;;;;13.93;3.42;;;10.10;95.10;;;;;;5051099;28;20021;-75
2024/03/26 09:15:17;;;;;;;8.02;2.85;;;10.20;94.90;;;;;;5051028;28;20479;-75
2024/03/26 09:17:42;;;;;;;6.65;3.00;;;10.30;94.90;;;;;;5056916;28;20029;-76
2024/03/26 09:20:09;;;;;;;3.92;2.60;;;10.30;94.90;;;;;;5064369;28;20819;-76
2024/03/26 09:22:36;;;;;;;5.88;2.80;;;10.40;94.80;;;;;;5052336;28;20075;-76
2024/03/26 09:25:02;;;;;;;9.27;3.22;;;10.30;95.00;;;;;;5063360;28;20111;-76
2024/03/26 09:27:28;;;;;;;10.95;3.22;;;10.30;95.20;;;;;;5062191;28;20439;-75
2024/03/26 09:29:53;;;;;;;4.13;1.80;;;10.30;95.00;;;;;;5051873;28;20041;-76
2024/03/26 09:32:19;;;;;;;3.67;2.47;;;10.40;95.10;;;;;;5056205;28;20056;-77
2024/03/26 09:34:45;;;;;;;13.82;3.75;;;10.30;95.20;;;;;;5050939;28;20090;-77
2024/03/26 09:37:11;;;;;;;6.38;2.58;;;10.30;95.20;;;;;;5050993;28;20447;-77
2024/03/26 09:39:36;;;;;;;4.15;2.65;;;10.40;95.20;;;;;;5054758;28;20033;-76
2024/03/26 09:42:04;;;;;;;4.18;2.22;;;10.40;95.10;;;;;;5057850;28;20468;-78
2024/03/26 09:44:30;;;;;;;8.38;2.90;;;10.50;95.20;;;;;;5059534;28;20041;-77
2024/03/26 09:46:58;;;;;;;6.30;2.70;;;10.50;95.20;;;;;;5048996;28;20037;-76
2024/03/26 09:49:26;;;;;;;4.75;2.45;;;10.50;95.10;;;;;;5052788;28;20029;-76
2024/03/26 09:51:53;;;;;;;7.68;2.45;;;10.60;95.00;;;;;;5053606;28;20043;-76
2024/03/26 09:54:19;;;;;;;9.57;2.95;;;10.60;95.10;;;;;;5060098;28;20028;-76
2024/03/26 09:56:46;;;;;;;8.63;3.10;;;10.60;95.10;;;;;;5062201;28;20047;-76
2024/03/26 09:59:11;;;;;;;5.25;2.83;;;10.60;95.00;;;;;;5060926;28;20472;-78
2024/03/26 10:01:39;;;;;;;8.50;2.90;;;10.60;94.80;;;;;;5063176;28;20032;-77
2024/03/26 10:04:05;;;;;;;6.75;3.25;;;10.70;94.80;;;;;;5068026;28;20075;-77
2024/03/26 10:06:32;;;;;;;4.95;2.70;;;10.70;94.60;;;;;;5061679;28;20040;-77
2024/03/26 10:08:58;;;;;;;7.43;2.95;;;10.90;94.40;;;;;;5057712;28;20123;-77
2024/03/26 10:11:25;;;;;;;7.68;2.40;;;10.90;94.50;;;;;;5057392;28;20136;-77
2024/03/26 10:13:52;;;;;;;4.88;2.83;;;10.90;94.40;;;;;;5060586;28;20107;-77
2024/03/26 10:16:18;;;;;;;10.02;3.67;;;10.90;94.40;;;;;;5062648;28;20036;-77
2024/03/26 10:18:45;;;;;;;6.35;3.28;;;11.00;94.20;;;;;;5050948;28;20036;-76
2024/03/26 10:21:11;;;;;;;9.25;3.33;;;11.10;94.30;;;;;;5052191;28;20082;-76
2024/03/26 10:23:37;;;;;;;7.38;3.42;;;11.10;94.20;;;;;;5048879;28;20033;-74
2024/03/26 10:26:03;;;;;;;7.03;3.10;;;11.10;94.40;;;;;;5049714;28;20028;-75
2024/03/26 10:28:28;;;;;;;10.10;2.58;;;11.20;94.40;;;;;;5050415;28;20060;-75
2024/03/26 10:30:54;;;;;;;7.47;2.60;;;11.20;94.20;;;;;;5060197;28;20434;-74
2024/03/26 10:33:20;;;;;;;6.32;2.65;;;11.20;94.20;;;;;;5061042;28;20440;-74
2024/03/26 10:35:51;;;;;;;8.48;2.50;;;11.30;94.00;;;;;;5062254;28;20025;-74
2024/03/26 10:38:20;;;;;;;6.97;3.45;;;11.30;94.00;;;;;;5066389;28;20085;-75
2024/03/26 10:40:59;;;;;;;10.07;3.25;;;11.40;93.80;;;;;;5068185;28;20488;-75
2024/03/26 10:43:26;;;;;;;9.48;3.55;;;11.50;93.90;;;;;;5050231;28;20036;-75
2024/03/26 10:45:53;;;;;;;6.38;3.13;;;11.60;93.90;;;;;;5061299;28;20440;-75
2024/03/26 10:48:22;;;;;;;5.53;2.58;;;11.60;93.80;;;;;;5055322;28;20025;-76
2024/03/26 10:50:52;;;;;;;9.15;2.28;;;11.60;93.70;;;;;;5067654;28;20040;-77
2024/03/26 10:53:20;;;;;;;7.47;3.28;;;11.70;93.70;;;;;;5057157;28;20029;-76
2024/03/26 10:55:46;;;;;;;5.05;2.70;;;11.70;93.70;;;;;;5068454;28;20707;-76
2024/03/26 10:58:12;;;;;;;6.28;2.50;;;11.70;93.60;;;;;;5048601;28;20504;-75
2024/03/26 11:00:39;;;;;;;10.70;3.30;;;11.70;93.70;;;;;;5049762;28;20068;-78
2024/03/26 11:03:08;;;;;;;10.10;3.38;;;11.80;93.50;;;;;;5050191;28;20036;-76
2024/03/26 11:05:36;;;;;;;10.40;3.33;;;11.80;93.40;;;;;;5049903;28;20047;-75
2024/03/26 11:08:02;;;;;;;7.38;3.28;;;12.00;93.60;;;;;;5061518;28;20104;-76
2024/03/26 11:10:28;;;;;;;4.40;1.98;;;12.00;93.10;;;;;;5060159;28;20175;-76
2024/03/26 11:12:57;;;;;;;5.68;3.28;;;12.10;93.50;;;;;;5064033;28;20024;-75
2024/03/26 11:15:28;;;;;;;4.13;2.42;;;12.10;93.50;;;;;;5051462;28;20064;-76
2024/03/26 11:17:58;;;;;;;10.15;3.17;;;12.10;93.40;;;;;;5060890;28;20025;-75
2024/03/26 11:20:28;;;;;;;7.65;3.20;;;12.20;93.40;;;;;;5061265;28;20028;-75
2024/03/26 11:23:04;;;;;;;8.48;3.10;;;12.10;93.30;;;;;;5067189;28;20013;-75
2024/03/26 11:25:31;;;;;;;7.53;3.40;;;12.10;93.20;;;;;;5053925;28;20509;-75
2024/03/26 11:28:02;;;;;;;5.53;2.70;;;12.20;93.30;;;;;;5055247;28;20032;-75
2024/03/26 11:30:29;;;;;;;6.72;2.83;;;12.30;93.20;;;;;;5058024;28;20515;-75
2024/03/26 11:32:56;;;;;;;4.25;2.50;;;12.30;92.90;;;;;;5055324;28;20032;-75
2024/03/26 11:35:24;;;;;;;7.13;2.63;;;12.40;93.10;;;;;;5060827;28;20029;-75
2024/03/26 11:37:52;;;;;;;2.42;1.77;;;12.40;93.50;;;;;;5048181;28;20042;-75
2024/03/26 11:40:19;;;;;;;10.57;3.03;;;12.40;93.40;;;;;;5062310;28;20056;-75
2024/03/26 11:42:46;;;;;;;6.15;2.78;;;12.40;93.60;;;;;;5047923;28;20095;-75
2024/03/26 11:45:11;;;;;;;10.20;3.03;;;12.50;93.50;;;;;;5048738;28;20495;-75
2024/03/26 11:47:37;;;;;;;7.20;2.72;;;12.40;93.60;;;;;;5053614;28;20068;-75
2024/03/26 11:50:03;;;;;;;12.63;3.28;;;12.40;93.50;;;;;;5065154;28;20128;-75
2024/03/26 11:52:29;;;;;;;6.20;2.80;;;12.50;93.60;;;;;;5055437;28;20036;-75
2024/03/26 11:54:59;;;;;;;5.85;2.17;;;12.50;93.60;;;;;;5061714;28;20032;-76
2024/03/26 11:57:25;;;;;;;5.35;2.40;;;12.50;93.60;;;;;;5059818;28;20044;-75
2024/03/26 11:59:52;;;;;;;5.88;2.70;;;12.50;93.80;;;;;;5056088;28;20028;-75
2024/03/26 12:02:18;;;;;;;7.10;3.40;;;12.50;93.60;;;;;;5063881;28;20074;-75
2024/03/26 12:04:44;;;;;;;6.03;2.70;;;12.60;93.60;;;;;;5060652;28;20036;-75
2024/03/26 12:07:16;;;;;;;7.72;2.60;;;12.70;93.40;;;;;;5053754;28;20408;-75
2024/03/26 12:09:41;;;;;;;8.77;2.85;;;12.60;93.30;;;;;;5059553;28;20106;-75
2024/03/26 12:12:10;;;;;;;5.53;3.03;;;12.60;93.70;;;;;;5062492;28;20493;-75
2024/03/26 12:14:37;;;;;;;4.78;2.70;;;12.70;93.50;;;;;;5066186;28;20040;-75
2024/03/26 12:17:03;;;;;;;6.85;2.80;;;12.80;93.40;;;;;;5064370;28;20105;-75
2024/03/26 12:19:29;;;;;;;8.70;2.85;;;12.80;93.30;;;;;;5068849;28;20036;-75
2024/03/26 12:21:55;;;;;;;9.90;3.30;;;12.90;93.10;;;;;;5069176;28;20032;-75
2024/03/26 12:24:20;;;;;;;4.72;3.03;;;12.90;93.40;;;;;;5054893;28;20033;-75
2024/03/26 12:26:46;;;;;;;9.77;3.50;;;13.00;92.90;;;;;;5059998;28;20043;-74
2024/03/26 12:29:12;;;;;;;4.88;2.58;;;13.00;93.40;;;;;;5063307;28;20029;-75
2024/03/26 12:31:39;;;;;;;8.90;3.65;;;13.00;92.90;;;;;;5064736;28;20072;-75
2024/03/26 12:34:08;;;;;;;6.85;3.20;;;13.10;93.40;;;;;;5069274;28;20450;-75
2024/03/26 12:36:36;;;;;;;6.45;2.90;;;13.10;93.40;;;;;;5065166;28;20028;-75
2024/03/26 12:39:03;;;;;;;8.50;3.38;;;13.10;93.10;;;;;;5063574;28;20033;-74
2024/03/26 12:41:28;;;;;;;7.93;3.10;;;13.10;93.40;;;;;;5065037;28;20104;-75
2024/03/26 12:43:54;;;;;;;5.82;3.03;;;13.10;93.00;;;;;;5061523;28;20396;-75
2024/03/26 12:46:19;;;;;;;6.15;3.03;;;13.20;93.30;;;;;;5068939;28;20025;-75